Simanggang, Malaysia
Current Conditions -  °F | °C
As of 12:00 AM on Saturday 25 Oct 2014 (Local Time) from WBGY Reporting Station
Broken Clouds Broken Clouds  
Wind Chill: 75°   Ceiling: 15000
Heat Index: 75°   Visibility: 6mi
Dew Point: 73°   Wind: 1mph
Humidity: 94%   Direction: 100°E
Pressure: 29.85"   Gusts: NA
Location:  1.23°N, 111.45°E
Report Text: WBGY 241600Z 10001KT 9999 SCT022 BKN150 24/23 Q1011
Loading
Personal Weather Stations






























Interactive Weather Map
Tropical Storm Tracking
New forecast layout! Learn more

10-Day Weather Forecast

Advertisements
Track Severe Weather on mobile